AirNav   ProFlight Series 2 Aviation Headset
 
 1096 users online  

64MI Ti Heliport
Utica, Michigan, USA

GOING TO UTICA?


FAA INFORMATION EFFECTIVE 16 JULY 2020

Location

FAA Identifier: 64MI
Lat/Long: 42-39-53.0000N 083-00-44.0000W
42-39.883333N 083-00.733333W
42.6647222,-83.0122222
(estimated)
Elevation: 680 ft. / 207 m (estimated)
Variation: 07W (1995)
From city: 2 miles NE of UTICA, MI
Time zone: UTC -4 (UTC -5 during Standard Time)
Zip code: 48315

Heliport Operations

Heliport use: Private use. Permission required prior to landing
Activation date: 08/1998
Control tower: no
ARTCC: CLEVELAND CENTER
FSS: LANSING FLIGHT SERVICE STATION
Attendance: MON-FRI 0700-1700
Segmented circle: no

Heliport Communications

WX AWOS-3 at VLL (10 nm SW): 119.475 (248-288-4649)
WX ASOS at DET (15 nm S): PHONE 313-371-9696
WX ASOS at PTK (18 nm W): 125.025 (248-886-8551)

Nearby radio navigation aids

VOR radial/distance  VOR name  Freq  Var
SVMr062/30.0SALEM VORTAC114.3003W
DXOr036/31.3DETROIT VOR/DME113.4006W
FNTr125/37.1FLINT VORTAC116.9006W

 
NDB name  Hdg/Dist  Freq  Var  ID
GROSSE ILE017/34.441907WRYS .-. -.-- ...

Heliport Services

Runway Information

Helipad H1

Dimensions: 12 x 12 ft. / 4 x 4 m
Surface: concrete
ROOFTOP.
Traffic pattern: leftleft

Heliport Ownership and Management from official FAA records

Ownership: Privately-owned
Owner: TI-COATING INC.
50500 CORPORATE DRIVE
UTICA, MI 48315
Phone (586) 726-1900
Manager: WILLIAM C ZICHICHI
50500 CORPORATE DRIVE
UTICA, MI 48315
Phone (586) 726-1900

Heliport Operational Statistics

Aircraft based on the field: 1
Helicopters: 1
    

Additional Remarks

A52-H1 12 FT POLE 20 FT N; 33 FT POWERLINE 100 FT E; 3 FT POWERLINE 200 FT S.
FOR CD CTC CLEVELAND ARTCC AT 440-774-0490.

Instrument Procedures

There are no published instrument procedures at 64MI.

Some nearby airports with instrument procedures:

57D - Ray Community Airport (7 nm NE)
D98 - Romeo State Airport (8 nm N)
KMTC - Selfridge Air National Guard Base (8 nm E)
KVLL - Oakland/Troy Airport (10 nm SW)
KDET - Coleman A Young Municipal Airport (15 nm S)
KPTK - Oakland County International Airport (18 nm W)
 
Loc | Ops | Rwys | IFR | FBO | Links
Com | Nav | Svcs | Stats | Notes
Area around 64MI (Ti Heliport)
 
Road maps at: MapQuest Bing Google
 
Aerial photo
No photo
 
Sectional chart

 
Airport distance calculator
Flying to Ti Heliport? Find the distance to fly.

From to 64MI

Sunrise and sunset
Times for 04-Aug-2020
 Local
(UTC-4)
 Zulu
(UTC)
Morning civil twilight05:5709:57
Sunrise06:2910:29
Sunset20:4700:47
Evening civil twilight21:1901:19

Current date and time
Zulu (UTC)  05-Aug-2020 00:35:50
Local (UTC-4)  04-Aug-2020 20:35:50
 
METAR
KMTC 
9nm E 
042356Z 33005KT 10SM SCT044 BKN065 BKN080 17/17 A2996 RMK AO2A RAE16 SLP149 P0000 60019 T01690169 10228 20166 52006
KVLL 
10nm SW 
050015Z AUTO 01003KT 10SM SCT023 BKN043 OVC075 19/16 A3000 RMK AO2 T01920155
KDET 
16nm S 
050010Z 01006KT 10SM FEW019 BKN044 OVC070 19/14 A2998 RMK AO2 T01890139
KPTK 
18nm W 
050012Z 34006KT 10SM SCT025 BKN055 17/14 A2997 RMK AO2 T01720139 $
TAF
KMTC 
9nm E 
041700Z 0417/0523 34009KT 9999 BKN035 QNH2990INS BECMG 0418/0419 33009KT 9000 -SHRA BKN030 QNH2991INS BECMG 0420/0421 33010G15KT 9000 -SHRA BKN035 QNH2993INS BECMG 0500/0501 VRB06KT 9999 NSW BKN020 QNH2998INS TX23/0419Z TN13/0511Z
KDET 
16nm S 
041739Z 0418/0518 32011KT P6SM SCT025 BKN035 FM042000 32010KT P6SM SCT035 BKN050 TEMPO 0420/0424 -SHRA BKN030 FM050200 33004KT P6SM SCT040 FM051000 30005KT P6SM FEW030 SCT040
KPTK 
18nm W 
041739Z 0418/0518 33012KT P6SM SCT020 BKN035 TEMPO 0419/0423 -SHRA BKN028 FM042300 34010KT P6SM SCT035 BKN045 FM050200 33004KT P6SM SCT040 FM051000 30005KT P6SM FEW030 SCT040
NOTAMs
Click for the latest NOTAMs
NOTAMs are issued by the DoD/FAA and will open in a separate window not controlled by AirNav.

 

 
 

Would you like to see your business listed on this page?

 If your business provides an interesting product or service to pilots, flight crews, aircraft, or users of the Ti Heliport, you should consider listing it here.  To start the listing process, click on the button below
 
Add a business
 

Other Pages about Ti Heliport

Update a link
 
Copyright © AirNav, LLC. All rights reserved. Privacy Policy  Contact